createdAt,value
2019-05-17T00:02:10.802Z,57.70
2019-05-17T00:04:40.659Z,57.80
2019-05-17T00:07:10.576Z,57.70
2019-05-17T00:09:41.490Z,57.70
2019-05-17T00:12:11.414Z,57.90
2019-05-17T00:14:41.261Z,58.00
2019-05-17T00:17:11.116Z,58.40
2019-05-17T00:19:40.962Z,58.40
2019-05-17T00:22:10.811Z,58.40
2019-05-17T00:24:40.725Z,58.60
2019-05-17T00:27:13.553Z,58.60
2019-05-17T00:29:43.703Z,59.10
2019-05-17T00:32:13.626Z,59.30
2019-05-17T00:34:43.478Z,59.30
2019-05-17T00:37:13.407Z,59.20
2019-05-17T00:39:43.246Z,59.00
2019-05-17T00:42:13.098Z,58.50
2019-05-17T00:44:43.286Z,58.60
2019-05-17T00:47:13.166Z,58.80
2019-05-17T00:49:43.019Z,58.90
2019-05-17T00:52:12.897Z,58.60
2019-05-17T00:54:42.733Z,59.10
2019-05-17T00:57:12.591Z,59.40
2019-05-17T00:59:42.438Z,59.00
2019-05-17T01:02:12.287Z,59.10
2019-05-17T01:04:43.275Z,58.90
2019-05-17T01:07:13.127Z,59.30
2019-05-17T01:09:42.982Z,59.20
2019-05-17T01:12:12.822Z,59.20
2019-05-17T01:14:42.683Z,59.10
2019-05-17T01:17:12.527Z,60.10
2019-05-17T01:19:42.434Z,59.80
2019-05-17T01:22:12.290Z,60.30
2019-05-17T01:24:42.130Z,60.10
2019-05-17T01:27:11.984Z,60.30
2019-05-17T01:29:41.829Z,60.20
2019-05-17T01:32:11.747Z,60.40
2019-05-17T01:34:41.915Z,60.10
2019-05-17T01:37:12.120Z,60.00
2019-05-17T01:39:41.966Z,59.80
2019-05-17T01:42:11.813Z,59.60
2019-05-17T01:44:41.658Z,59.60
2019-05-17T01:47:11.508Z,61.40
2019-05-17T01:49:41.355Z,60.80
2019-05-17T01:52:11.198Z,60.60
2019-05-17T01:54:41.060Z,61.20
2019-05-17T01:57:10.913Z,61.30
2019-05-17T01:59:41.818Z,61.70
2019-05-17T02:02:16.470Z,61.80
2019-05-17T02:04:46.735Z,62.10
2019-05-17T02:07:17.305Z,62.30
2019-05-17T02:09:47.792Z,62.30
2019-05-17T02:12:18.848Z,62.50
2019-05-17T02:14:48.732Z,62.20
2019-05-17T02:17:18.579Z,62.40
2019-05-17T02:19:48.434Z,62.50
2019-05-17T02:22:18.278Z,62.70
2019-05-17T02:24:48.137Z,62.80
2019-05-17T02:27:17.986Z,62.80
2019-05-17T02:29:47.834Z,62.80
2019-05-17T02:32:17.694Z,62.80
2019-05-17T02:34:47.548Z,63.80
2019-05-17T02:37:17.406Z,63.10
2019-05-17T02:39:58.013Z,63.20
2019-05-17T02:42:18.718Z,63.00
2019-05-17T02:44:48.584Z,63.80
2019-05-17T02:47:18.436Z,63.00
2019-05-17T02:49:48.271Z,62.80
2019-05-17T02:52:18.143Z,62.90
2019-05-17T02:54:48.008Z,63.00
2019-05-17T02:57:18.925Z,63.00
2019-05-17T02:59:48.763Z,62.60
2019-05-17T03:02:18.659Z,62.00
2019-05-17T03:04:48.504Z,61.90
2019-05-17T03:07:18.342Z,61.70
2019-05-17T03:09:48.197Z,61.60
2019-05-17T03:12:18.055Z,61.60
2019-05-17T03:14:47.898Z,61.00
2019-05-17T03:17:17.758Z,60.90
2019-05-17T03:19:48.679Z,61.50
2019-05-17T03:22:18.837Z,62.10
2019-05-17T03:24:48.998Z,63.00
2019-05-17T03:27:18.843Z,63.20
2019-05-17T03:29:48.698Z,63.70
2019-05-17T03:32:18.574Z,63.90
2019-05-17T03:34:48.391Z,64.40
2019-05-17T03:37:18.247Z,64.40
2019-05-17T03:39:48.084Z,64.50
2019-05-17T03:42:18.301Z,64.50
2019-05-17T03:44:48.169Z,64.80
2019-05-17T03:47:18.034Z,65.00
2019-05-17T03:49:47.886Z,64.90
2019-05-17T03:52:17.750Z,64.70
2019-05-17T03:54:47.635Z,64.80
2019-05-17T03:57:17.484Z,64.90
2019-05-17T03:59:47.331Z,65.70
2019-05-17T04:02:17.183Z,65.20
2019-05-17T04:04:47.058Z,65.00
2019-05-17T04:07:16.908Z,65.30
2019-05-17T04:09:46.748Z,64.50
2019-05-17T04:12:16.597Z,63.80
2019-05-17T04:14:46.450Z,63.70
2019-05-17T04:17:16.303Z,63.40
2019-05-17T04:19:46.161Z,63.40
2019-05-17T04:22:16.041Z,63.40
2019-05-17T04:24:45.892Z,63.30
2019-05-17T04:27:15.735Z,63.20
2019-05-17T04:29:45.594Z,63.30
2019-05-17T04:32:15.435Z,63.50
2019-05-17T04:34:45.281Z,63.20
2019-05-17T04:37:15.163Z,63.40
2019-05-17T04:39:46.085Z,63.60
2019-05-17T04:42:15.939Z,64.00
2019-05-17T04:44:45.809Z,63.90
2019-05-17T04:47:15.660Z,63.70
2019-05-17T04:49:45.533Z,63.70
2019-05-17T04:52:15.365Z,64.80
2019-05-17T04:54:45.216Z,63.90
2019-05-17T04:57:15.065Z,63.90
2019-05-17T04:59:44.910Z,64.10
2019-05-17T05:02:14.784Z,64.00
2019-05-17T05:04:44.631Z,64.30
2019-05-17T05:07:14.499Z,64.10
2019-05-17T05:09:44.364Z,64.80
2019-05-17T05:12:14.217Z,63.40
2019-05-17T05:14:44.435Z,63.90
2019-05-17T05:17:14.664Z,63.60
2019-05-17T05:19:44.501Z,63.60
2019-05-17T05:22:17.427Z,63.70
2019-05-17T05:24:45.808Z,63.50
2019-05-17T05:27:15.658Z,62.80
2019-05-17T05:29:45.515Z,62.70
2019-05-17T05:32:15.345Z,62.60
2019-05-17T05:34:46.501Z,62.60
2019-05-17T05:37:16.834Z,61.60
2019-05-17T05:39:46.678Z,59.60
2019-05-17T05:42:16.524Z,58.00
2019-05-17T05:44:46.361Z,56.70
2019-05-17T05:47:16.211Z,56.80
2019-05-17T05:49:46.401Z,56.20
2019-05-17T05:52:16.254Z,55.50
2019-05-17T05:54:46.104Z,55.50
2019-05-17T05:57:15.960Z,55.00
2019-05-17T05:59:46.116Z,55.20
2019-05-17T06:02:15.949Z,55.00
2019-05-17T06:04:45.810Z,54.70
2019-05-17T06:07:15.671Z,54.80
2019-05-17T06:09:45.505Z,54.40
2019-05-17T06:12:23.735Z,54.60
2019-05-17T06:14:46.834Z,55.20
2019-05-17T06:17:16.677Z,55.40
2019-05-17T06:19:46.530Z,55.70
2019-05-17T06:22:16.408Z,55.70
2019-05-17T06:24:46.255Z,54.70
2019-05-17T06:27:16.113Z,55.30
2019-05-17T06:29:47.634Z,54.90
2019-05-17T06:32:17.493Z,54.40
2019-05-17T06:34:47.333Z,54.70
2019-05-17T06:37:17.182Z,54.10
2019-05-17T06:39:47.016Z,54.00
2019-05-17T06:42:16.875Z,53.40
2019-05-17T06:44:46.728Z,52.30
2019-05-17T06:47:16.561Z,52.20
2019-05-17T06:49:46.415Z,51.80
2019-05-17T06:52:16.277Z,50.80
2019-05-17T06:54:46.130Z,50.00
2019-05-17T06:57:15.972Z,49.40
2019-05-17T06:59:45.826Z,48.90
2019-05-17T07:02:15.672Z,49.00
2019-05-17T07:04:45.513Z,48.20
2019-05-17T07:07:30.109Z,53.70
2019-05-17T07:10:00.549Z,53.90
2019-05-17T07:12:30.688Z,47.60
2019-05-17T07:15:01.539Z,50.10
2019-05-17T07:17:31.980Z,47.70
2019-05-17T07:20:01.810Z,48.40
2019-05-17T07:22:32.730Z,48.90
2019-05-17T07:25:02.585Z,47.70
2019-05-17T07:27:41.340Z,47.80
2019-05-17T07:30:09.918Z,49.70
2019-05-17T07:32:40.615Z,49.50
2019-05-17T07:35:11.879Z,47.80
2019-05-17T07:37:41.726Z,48.00
2019-05-17T07:40:11.650Z,50.20
2019-05-17T07:42:41.518Z,48.50
2019-05-17T07:45:11.782Z,47.90
2019-05-17T07:47:41.632Z,49.30
2019-05-17T07:50:11.803Z,51.10
2019-05-17T07:52:41.812Z,50.70
2019-05-17T07:55:11.718Z,49.50
2019-05-17T07:57:41.632Z,48.70
2019-05-17T08:00:12.059Z,47.30
2019-05-17T08:02:42.487Z,47.80
2019-05-17T08:05:12.327Z,48.80
2019-05-17T08:07:42.433Z,49.70
2019-05-17T08:10:12.333Z,48.50
2019-05-17T08:12:42.160Z,46.40
2019-05-17T08:15:12.030Z,45.50
2019-05-17T08:17:41.894Z,47.40
2019-05-17T08:20:11.755Z,46.50
2019-05-17T08:22:41.612Z,46.50
2019-05-17T08:30:11.877Z,42.80
2019-05-17T08:32:41.727Z,44.40
2019-05-17T08:35:11.651Z,44.40
2019-05-17T08:37:42.225Z,43.90
2019-05-17T08:40:15.216Z,43.30
2019-05-17T08:42:45.348Z,43.20
2019-05-17T08:45:15.201Z,43.50
2019-05-17T08:47:45.139Z,44.70
2019-05-17T08:50:15.003Z,45.20
2019-05-17T08:52:44.901Z,44.20
2019-05-17T08:55:15.176Z,44.20
2019-05-17T08:57:45.049Z,43.80
2019-05-17T09:00:14.897Z,43.90
2019-05-17T09:02:44.752Z,44.00
2019-05-17T09:05:14.599Z,42.60
2019-05-17T09:07:44.806Z,43.30
2019-05-17T09:10:14.676Z,42.60
2019-05-17T09:12:44.525Z,42.50
2019-05-17T09:15:14.376Z,42.90
2019-05-17T09:17:44.290Z,42.00
2019-05-17T09:20:14.149Z,41.70
2019-05-17T09:22:44.410Z,41.50
2019-05-17T09:25:18.930Z,41.70
2019-05-17T09:27:45.895Z,41.80
2019-05-17T09:30:15.809Z,41.90
2019-05-17T09:37:44.554Z,42.30
2019-05-17T09:40:14.414Z,43.00
2019-05-17T09:42:44.332Z,42.70
2019-05-17T09:45:14.179Z,43.10
2019-05-17T09:47:44.031Z,43.80
2019-05-17T09:50:13.947Z,43.20
2019-05-17T09:52:43.866Z,44.50
2019-05-17T09:55:14.107Z,45.40
2019-05-17T09:57:46.803Z,45.30
2019-05-17T10:02:46.066Z,47.00
2019-05-17T10:05:15.901Z,48.40
2019-05-17T10:07:45.820Z,49.30
2019-05-17T10:10:15.677Z,48.20
2019-05-17T10:12:45.594Z,47.90
2019-05-17T10:15:15.732Z,49.70
2019-05-17T10:17:45.645Z,48.50
2019-05-17T10:20:15.571Z,49.00
2019-05-17T10:22:45.405Z,47.90
2019-05-17T10:25:15.254Z,47.50
2019-05-17T10:27:45.170Z,48.10
2019-05-17T10:30:15.089Z,47.80
2019-05-17T10:32:44.930Z,47.20
2019-05-17T10:37:44.198Z,48.90
2019-05-17T10:40:14.128Z,48.90
2019-05-17T10:42:43.988Z,47.80
2019-05-17T10:45:14.444Z,48.20
2019-05-17T10:47:44.368Z,48.70
2019-05-17T10:50:14.213Z,48.80
2019-05-17T10:52:44.067Z,49.20
2019-05-17T10:55:13.913Z,49.10
2019-05-17T10:57:43.786Z,50.50
2019-05-17T11:00:14.422Z,48.70
2019-05-17T11:02:44.265Z,49.10
2019-05-17T11:05:14.187Z,48.40
2019-05-17T11:07:45.214Z,49.10
2019-05-17T11:10:15.310Z,49.60
2019-05-17T11:12:45.162Z,48.20
2019-05-17T11:15:15.317Z,48.30
2019-05-17T11:17:45.166Z,49.20
2019-05-17T11:20:15.077Z,50.70
2019-05-17T11:22:47.384Z,49.00
2019-05-17T11:25:17.605Z,49.30
2019-05-17T11:27:47.516Z,50.80
2019-05-17T11:30:18.737Z,50.70
2019-05-17T11:32:48.582Z,49.70
2019-05-17T11:35:18.426Z,50.40
2019-05-17T11:37:48.651Z,49.90
2019-05-17T11:40:18.494Z,50.60
2019-05-17T11:42:48.337Z,51.30
2019-05-17T11:45:27.168Z,51.00
2019-05-17T11:47:49.653Z,50.80
2019-05-17T11:50:19.515Z,50.90
2019-05-17T11:52:49.426Z,50.80
2019-05-17T11:55:19.275Z,50.30
2019-05-17T11:57:49.131Z,50.40
2019-05-17T12:00:19.242Z,50.80
2019-05-17T12:02:49.103Z,50.70
2019-05-17T12:05:18.957Z,50.80
2019-05-17T12:07:49.125Z,51.40
2019-05-17T12:10:19.047Z,51.30
2019-05-17T12:12:48.895Z,51.10
2019-05-17T12:15:18.755Z,51.00
2019-05-17T12:17:48.600Z,51.20
2019-05-17T12:20:18.443Z,51.40
2019-05-17T12:22:50.704Z,52.10
2019-05-17T12:25:20.192Z,50.90
2019-05-17T12:27:50.039Z,51.20
2019-05-17T12:30:19.875Z,51.80
2019-05-17T12:32:49.745Z,51.00
2019-05-17T12:35:19.576Z,51.50
2019-05-17T12:37:49.485Z,51.30
2019-05-17T12:40:19.404Z,51.00
2019-05-17T12:42:49.315Z,51.40
2019-05-17T12:45:20.230Z,51.30
2019-05-17T12:47:50.083Z,51.30
2019-05-17T12:50:19.931Z,50.70
2019-05-17T12:52:49.770Z,49.80
2019-05-17T12:55:19.956Z,50.10
2019-05-17T12:57:49.804Z,49.70
2019-05-17T13:00:19.691Z,49.80
2019-05-17T13:02:49.498Z,49.50
2019-05-17T13:05:19.770Z,49.70
2019-05-17T13:07:49.611Z,49.70
2019-05-17T13:10:19.457Z,49.10
2019-05-17T13:12:49.307Z,49.70
2019-05-17T13:15:19.149Z,50.30
2019-05-17T13:17:49.015Z,49.30
2019-05-17T13:20:18.880Z,49.50
2019-05-17T13:22:48.731Z,50.00
2019-05-17T13:25:18.555Z,50.50
2019-05-17T13:27:48.474Z,51.40
2019-05-17T13:30:18.326Z,50.60
2019-05-17T13:32:48.575Z,50.60
2019-05-17T13:35:18.424Z,48.90
2019-05-17T13:37:48.280Z,49.40
2019-05-17T13:40:18.123Z,48.70
2019-05-17T13:42:47.989Z,48.90
2019-05-17T13:45:17.831Z,49.10
2019-05-17T13:47:47.675Z,49.40
2019-05-17T13:50:17.669Z,49.70
2019-05-17T13:52:47.526Z,49.50
2019-05-17T13:55:17.388Z,49.30
2019-05-17T13:57:47.278Z,49.20
2019-05-17T14:00:17.145Z,49.60
2019-05-17T14:02:47.000Z,50.00
2019-05-17T14:05:16.899Z,49.30
2019-05-17T14:07:46.755Z,50.00
2019-05-17T14:10:26.794Z,49.10
2019-05-17T14:12:48.147Z,49.10
2019-05-17T14:15:18.008Z,49.30
2019-05-17T14:17:47.854Z,49.70
2019-05-17T14:20:17.711Z,49.60
2019-05-17T14:22:47.578Z,49.20
2019-05-17T14:25:17.576Z,49.40
2019-05-17T14:27:47.583Z,48.80
2019-05-17T14:30:20.445Z,49.10
2019-05-17T14:32:50.298Z,48.30
2019-05-17T14:35:20.141Z,49.30
2019-05-17T14:37:49.994Z,49.40
2019-05-17T14:40:19.926Z,48.80
2019-05-17T14:42:49.806Z,48.00
2019-05-17T14:45:19.713Z,48.70
2019-05-17T14:47:49.574Z,48.60
2019-05-17T14:50:19.828Z,48.90
2019-05-17T14:52:49.682Z,49.00
2019-05-17T14:55:19.538Z,49.10
2019-05-17T14:57:49.389Z,49.00
2019-05-17T15:00:19.245Z,48.90
2019-05-17T15:02:49.220Z,49.40
2019-05-17T15:05:19.067Z,50.00
2019-05-17T15:07:50.028Z,50.10
2019-05-17T15:10:19.874Z,50.20
2019-05-17T15:12:49.732Z,49.20
2019-05-17T15:15:25.547Z,49.60
2019-05-17T15:17:51.047Z,50.80
2019-05-17T15:20:20.912Z,50.40
2019-05-17T15:22:50.755Z,49.60
2019-05-17T15:25:20.619Z,48.90
2019-05-17T15:27:50.452Z,49.50
2019-05-17T15:30:20.763Z,50.40
2019-05-17T15:32:50.938Z,49.70
2019-05-17T15:35:20.785Z,49.40
2019-05-17T15:37:51.081Z,49.80
2019-05-17T15:40:21.078Z,48.60
2019-05-17T15:42:51.007Z,49.60
2019-05-17T15:45:20.930Z,50.20
2019-05-17T15:47:51.162Z,49.50
2019-05-17T15:50:21.017Z,49.50
2019-05-17T15:52:50.865Z,49.20
2019-05-17T15:55:20.715Z,49.50
2019-05-17T15:57:51.008Z,49.20
2019-05-17T16:00:21.208Z,48.70
2019-05-17T16:02:52.144Z,49.20
2019-05-17T16:05:21.990Z,48.70
2019-05-17T16:07:51.843Z,48.80
2019-05-17T16:10:21.682Z,49.30
2019-05-17T16:13:02.436Z,49.90
2019-05-17T16:15:25.009Z,48.70
2019-05-17T16:17:54.854Z,49.10
2019-05-17T16:20:24.706Z,49.00
2019-05-17T16:22:55.130Z,48.80
2019-05-17T16:25:25.051Z,48.40
2019-05-17T16:27:54.885Z,48.20
2019-05-17T16:30:24.765Z,48.20
2019-05-17T16:32:54.613Z,48.30
2019-05-17T16:35:24.462Z,48.20
2019-05-17T16:37:54.657Z,48.50
2019-05-17T16:40:24.577Z,48.50
2019-05-17T16:42:54.423Z,48.40
2019-05-17T16:45:24.291Z,48.70
2019-05-17T16:47:54.135Z,48.70
2019-05-17T16:50:23.985Z,48.70
2019-05-17T16:53:05.428Z,48.30
2019-05-17T16:55:26.118Z,48.90
2019-05-17T16:57:56.163Z,48.90
2019-05-17T17:00:31.486Z,49.20
2019-05-17T17:03:01.386Z,49.60
2019-05-17T17:05:31.552Z,49.20
2019-05-17T17:08:01.398Z,48.90
2019-05-17T17:10:31.243Z,49.40
2019-05-17T17:13:02.384Z,49.60
2019-05-17T17:15:33.733Z,49.30
2019-05-17T17:18:03.648Z,49.20
2019-05-17T17:20:33.492Z,49.30
2019-05-17T17:23:03.419Z,49.70
2019-05-17T17:25:34.244Z,49.40
2019-05-17T17:28:06.000Z,49.60
2019-05-17T17:30:35.639Z,49.80
2019-05-17T17:33:05.470Z,49.40
2019-05-17T17:35:36.404Z,49.70
2019-05-17T17:38:06.249Z,49.20
2019-05-17T17:40:36.111Z,49.20
2019-05-17T17:43:05.975Z,49.40
2019-05-17T17:45:35.835Z,49.30
2019-05-17T17:48:05.669Z,49.10
2019-05-17T17:50:35.532Z,49.40
2019-05-17T17:53:05.375Z,49.10
2019-05-17T17:55:36.752Z,49.70
2019-05-17T17:58:06.623Z,49.80
2019-05-17T18:00:36.478Z,50.10
2019-05-17T18:03:06.392Z,49.90
2019-05-17T18:05:36.319Z,50.30
2019-05-17T18:08:06.238Z,50.10
2019-05-17T18:10:36.091Z,50.30
2019-05-17T18:13:05.966Z,56.80
2019-05-17T18:15:42.430Z,50.40
2019-05-17T18:18:12.361Z,50.60
2019-05-17T18:20:42.446Z,51.10
2019-05-17T18:23:12.685Z,50.70
2019-05-17T18:25:43.609Z,51.20
2019-05-17T18:28:13.466Z,51.10
2019-05-17T18:30:43.313Z,51.60
2019-05-17T18:33:13.192Z,52.40
2019-05-17T18:35:43.030Z,52.30
2019-05-17T18:38:13.304Z,52.30
2019-05-17T18:40:43.175Z,52.30
2019-05-17T18:43:13.010Z,52.90
2019-05-17T18:45:42.853Z,53.00
2019-05-17T18:48:12.704Z,53.10
2019-05-17T18:50:42.632Z,53.20
2019-05-17T18:53:16.814Z,53.20
2019-05-17T18:55:43.958Z,53.40
2019-05-17T18:58:13.800Z,53.50
2019-05-17T19:00:43.660Z,53.40
2019-05-17T19:03:13.511Z,53.30
2019-05-17T19:05:45.312Z,53.90
2019-05-17T19:08:15.245Z,53.50
2019-05-17T19:10:45.090Z,53.60
2019-05-17T19:13:14.942Z,53.40
2019-05-17T19:15:45.508Z,53.40
2019-05-17T19:18:15.437Z,54.50
2019-05-17T19:20:45.302Z,54.10
2019-05-17T19:23:15.218Z,54.40
2019-05-17T19:25:45.093Z,54.90
2019-05-17T19:28:15.047Z,54.60
2019-05-17T19:30:44.898Z,54.80
2019-05-17T19:33:15.126Z,55.20
2019-05-17T19:35:44.978Z,55.70
2019-05-17T19:38:14.890Z,55.40
2019-05-17T19:40:45.027Z,54.80
2019-05-17T19:43:14.968Z,55.40
2019-05-17T19:45:45.083Z,54.50
2019-05-17T19:48:16.017Z,53.30
2019-05-17T19:50:48.798Z,53.00
2019-05-17T19:53:18.728Z,52.80
2019-05-17T19:55:48.564Z,52.80
2019-05-17T19:58:18.488Z,52.70
2019-05-17T20:00:48.345Z,52.90
2019-05-17T20:03:18.249Z,52.90
2019-05-17T20:05:48.101Z,52.80
2019-05-17T20:08:18.026Z,52.90
2019-05-17T20:10:51.462Z,53.30
2019-05-17T20:13:19.493Z,53.00
2019-05-17T20:15:49.352Z,53.30
2019-05-17T20:18:19.279Z,53.30
2019-05-17T20:20:49.449Z,52.70
2019-05-17T20:23:19.313Z,52.90
2019-05-17T20:25:50.599Z,53.10
2019-05-17T20:28:21.508Z,53.10
2019-05-17T20:30:51.358Z,53.40
2019-05-17T20:33:21.534Z,53.80
2019-05-17T20:35:51.390Z,53.60
2019-05-17T20:38:22.314Z,53.40
2019-05-17T20:40:52.162Z,53.30
2019-05-17T20:43:22.014Z,53.00
2019-05-17T20:45:51.937Z,53.20
2019-05-17T20:48:21.781Z,53.20
2019-05-17T20:50:51.626Z,53.70
2019-05-17T20:53:21.510Z,53.60
2019-05-17T20:55:51.355Z,53.50
2019-05-17T20:58:21.285Z,53.70
2019-05-17T21:00:51.139Z,53.80
2019-05-17T21:03:20.965Z,53.60
2019-05-17T21:05:50.801Z,53.60
2019-05-17T21:08:20.658Z,53.40
2019-05-17T21:10:50.526Z,53.70
2019-05-17T21:13:20.364Z,53.80
2019-05-17T21:15:50.511Z,53.50
2019-05-17T21:18:20.365Z,53.80
2019-05-17T21:20:50.224Z,53.90
2019-05-17T21:23:20.058Z,54.20
2019-05-17T21:25:50.293Z,53.70
2019-05-17T21:28:20.139Z,53.80
2019-05-17T21:30:49.982Z,54.10
2019-05-17T21:33:19.817Z,54.30
2019-05-17T21:35:49.688Z,54.50
2019-05-17T21:38:19.521Z,54.40
2019-05-17T21:40:49.386Z,54.50
2019-05-17T21:43:19.227Z,54.70
2019-05-17T21:46:02.522Z,54.70
2019-05-17T21:48:20.583Z,54.80
2019-05-17T21:50:50.402Z,55.00
2019-05-17T21:53:20.253Z,55.00
2019-05-17T21:55:50.113Z,55.00
2019-05-17T21:58:20.555Z,55.30
2019-05-17T22:01:02.722Z,55.10
2019-05-17T22:03:32.637Z,55.50
2019-05-17T22:06:02.864Z,55.60
2019-05-17T22:08:32.716Z,54.90
2019-05-17T22:11:02.586Z,55.10
2019-05-17T22:13:32.461Z,55.30
2019-05-17T22:16:17.139Z,55.50
2019-05-17T22:18:34.285Z,56.00
2019-05-17T22:21:04.128Z,56.80
2019-05-17T22:23:33.982Z,57.70
2019-05-17T22:26:03.834Z,57.90
2019-05-17T22:28:33.696Z,59.00
2019-05-17T22:31:03.952Z,59.40
2019-05-17T22:33:33.806Z,60.00
2019-05-17T22:36:03.641Z,59.20
2019-05-17T22:38:33.902Z,59.00
2019-05-17T22:41:03.789Z,59.30
2019-05-17T22:43:34.658Z,59.00
2019-05-17T22:46:04.502Z,59.70
2019-05-17T22:48:34.352Z,60.70
2019-05-17T22:51:04.207Z,60.30
2019-05-17T22:53:34.051Z,61.70
2019-05-17T22:56:04.259Z,62.40
2019-05-17T22:58:34.889Z,63.20
2019-05-17T23:01:04.745Z,61.70
2019-05-17T23:03:34.666Z,60.00
2019-05-17T23:06:04.638Z,59.40
2019-05-17T23:08:34.683Z,58.20
2019-05-17T23:11:04.550Z,57.60
2019-05-17T23:13:34.764Z,56.90
2019-05-17T23:16:06.265Z,56.10
2019-05-17T23:18:36.172Z,55.70
2019-05-17T23:21:06.027Z,54.90
2019-05-17T23:23:35.858Z,54.50
2019-05-17T23:26:05.710Z,54.70
2019-05-17T23:28:35.573Z,53.50
2019-05-17T23:31:05.413Z,53.70
2019-05-17T23:33:35.266Z,53.40
2019-05-17T23:36:05.103Z,53.50
2019-05-17T23:38:34.950Z,53.90
2019-05-17T23:41:04.812Z,54.50
2019-05-17T23:43:34.657Z,54.10
2019-05-17T23:46:04.494Z,53.80
2019-05-17T23:48:34.410Z,53.90
2019-05-17T23:51:04.725Z,54.30
2019-05-17T23:53:35.722Z,53.80
2019-05-17T23:56:05.570Z,54.10
2019-05-17T23:58:35.422Z,54.20
